Time;durP1;ratioP1;P1;durP2;ratioP2;P2;SDS_P1;SDS_P2;PMS_P1;PMS_P2;Temp;Humidity;BMP_temperature;BMP_pressure;BME280_temperature;BME280_humidity;BME280_pressure;Samples;Min_cycle;Max_cycle;Signal;HPM_P1;HPM_P2
2022/06/17 00:00:54;;;;;;;5.33;4.93;;;20.00;99.90;;;;;;6277933;28;20254;-68
2022/06/17 00:03:58;;;;;;;5.00;4.60;;;20.10;99.90;;;;;;6278899;28;20239;-67
2022/06/17 00:07:04;;;;;;;5.90;5.40;;;20.20;99.90;;;;;;6277528;28;20228;-68
2022/06/17 00:10:17;;;;;;;6.10;5.70;;;20.20;99.90;;;;;;6293469;28;20213;-68
2022/06/17 00:13:23;;;;;;;5.20;4.80;;;20.20;99.90;;;;;;6290270;28;20220;-68
2022/06/17 00:16:27;;;;;;;6.60;5.20;;;20.30;99.90;;;;;;6285138;28;20223;-68
2022/06/17 00:19:31;;;;;;;6.10;5.50;;;20.30;99.90;;;;;;6291314;28;20231;-68
2022/06/17 00:22:34;;;;;;;4.60;4.30;;;20.20;99.90;;;;;;6286242;28;20239;-67
2022/06/17 00:25:38;;;;;;;6.03;5.53;;;20.30;99.90;;;;;;6278669;28;20249;-69
2022/06/17 00:28:43;;;;;;;5.43;4.90;;;20.40;99.90;;;;;;6292021;28;20231;-69
2022/06/17 00:31:46;;;;;;;5.60;5.20;;;20.40;99.90;;;;;;6284573;28;20243;-69
2022/06/17 00:34:49;;;;;;;5.87;5.43;;;20.40;99.90;;;;;;6262554;28;20791;-69
2022/06/17 00:37:53;;;;;;;6.50;5.90;;;20.40;99.90;;;;;;6272158;28;20224;-69
2022/06/17 00:40:57;;;;;;;6.40;5.90;;;20.40;99.90;;;;;;6284512;28;20219;-69
2022/06/17 00:44:15;;;;;;;6.33;5.83;;;20.40;99.90;;;;;;6275623;28;20224;-68
2022/06/17 00:47:26;;;;;;;7.50;6.57;;;20.40;99.90;;;;;;6273788;28;20231;-68
2022/06/17 00:50:35;;;;;;;5.70;5.30;;;20.30;99.90;;;;;;6270252;28;20326;-68
2022/06/17 00:53:45;;;;;;;6.00;5.47;;;20.30;99.90;;;;;;6262943;28;20228;-68
2022/06/17 00:56:48;;;;;;;5.57;5.20;;;20.30;99.90;;;;;;6279749;28;20224;-68
2022/06/17 01:00:12;;;;;;;6.97;6.30;;;20.30;99.90;;;;;;6275180;28;20229;-67
2022/06/17 01:03:19;;;;;;;6.73;6.23;;;20.20;99.90;;;;;;6271239;28;20566;-67
2022/06/17 01:06:27;;;;;;;8.10;6.90;;;20.20;99.90;;;;;;6283460;28;20315;-68
2022/06/17 01:12:59;;;;;;;7.27;6.63;;;20.10;99.90;;;;;;6265750;28;20235;-67
2022/06/17 01:16:04;;;;;;;6.13;5.73;;;19.90;99.90;;;;;;6265085;28;20228;-68
2022/06/17 01:19:16;;;;;;;6.87;6.37;;;19.90;99.90;;;;;;6263559;28;20650;-67
2022/06/17 01:22:27;;;;;;;6.70;6.10;;;19.70;99.90;;;;;;6278972;28;20224;-68
2022/06/17 01:25:34;;;;;;;6.83;6.20;;;19.60;99.90;;;;;;6298282;28;20238;-68
2022/06/17 01:28:37;;;;;;;6.43;5.90;;;19.70;99.90;;;;;;6276087;28;20224;-68
2022/06/17 01:31:41;;;;;;;6.60;6.10;;;19.60;99.90;;;;;;6281247;28;20667;-67
2022/06/17 01:34:45;;;;;;;6.70;6.10;;;19.60;99.90;;;;;;6295175;28;20237;-67
2022/06/17 01:37:49;;;;;;;7.63;6.87;;;19.50;99.90;;;;;;6276406;28;20660;-68
2022/06/17 01:40:56;;;;;;;7.33;6.73;;;19.40;99.90;;;;;;6282704;28;20709;-68
2022/06/17 01:44:07;;;;;;;6.70;6.23;;;19.40;99.90;;;;;;6293196;28;20672;-68
2022/06/17 01:47:16;;;;;;;6.20;5.70;;;19.40;99.90;;;;;;6275782;28;20366;-69
2022/06/17 01:50:22;;;;;;;6.53;6.00;;;19.40;99.90;;;;;;6286052;28;20235;-68
2022/06/17 01:53:30;;;;;;;7.50;6.80;;;19.30;99.90;;;;;;6289674;28;20277;-68
2022/06/17 01:56:37;;;;;;;7.80;7.10;;;19.30;99.90;;;;;;6276042;28;20228;-68
2022/06/17 01:59:44;;;;;;;8.07;7.30;;;19.10;99.90;;;;;;6288323;28;20242;-68
2022/06/17 02:02:53;;;;;;;7.47;6.87;;;19.10;99.90;;;;;;6278328;28;20564;-69
2022/06/17 02:06:05;;;;;;;7.50;6.90;;;19.10;99.90;;;;;;6275440;28;20236;-68
2022/06/17 02:09:08;;;;;;;6.57;5.97;;;19.20;99.90;;;;;;6292290;28;20238;-68
2022/06/17 02:12:15;;;;;;;7.40;6.80;;;19.20;99.90;;;;;;6282041;28;20242;-67
2022/06/17 02:15:19;;;;;;;7.63;7.10;;;19.20;99.90;;;;;;6275596;28;20294;-67
2022/06/17 02:18:23;;;;;;;8.17;6.40;;;19.20;99.90;;;;;;6294262;28;20227;-68
2022/06/17 02:21:30;;;;;;;6.63;6.20;;;19.10;99.90;;;;;;6280977;28;20238;-67
2022/06/17 02:24:35;;;;;;;8.63;6.50;;;19.10;99.90;;;;;;6295489;28;20380;-68
2022/06/17 02:27:41;;;;;;;7.33;6.73;;;19.20;99.90;;;;;;6279145;28;20246;-68
2022/06/17 02:30:46;;;;;;;9.93;7.50;;;19.20;99.90;;;;;;6296727;28;20231;-68
2022/06/17 02:33:51;;;;;;;7.10;6.40;;;19.10;99.90;;;;;;6276933;28;20316;-68
2022/06/17 02:37:02;;;;;;;8.00;7.40;;;19.10;99.90;;;;;;6275094;28;20242;-68
2022/06/17 02:40:18;;;;;;;7.50;6.90;;;19.10;99.90;;;;;;6299749;28;20231;-68
2022/06/17 02:43:25;;;;;;;8.47;7.77;;;19.20;99.90;;;;;;6277058;28;20242;-68
2022/06/17 02:46:32;;;;;;;7.30;6.80;;;19.20;99.90;;;;;;6297576;28;20228;-68
2022/06/17 02:49:37;;;;;;;7.03;6.50;;;19.30;99.90;;;;;;6275970;28;20232;-68
2022/06/17 02:52:41;;;;;;;7.90;7.20;;;19.30;99.90;;;;;;6280483;28;20238;-67
2022/06/17 02:55:45;;;;;;;8.77;8.07;;;19.20;99.90;;;;;;6294773;28;20224;-68
2022/06/17 02:59:03;;;;;;;7.93;7.23;;;19.10;99.90;;;;;;6280242;28;20665;-68
2022/06/17 03:02:15;;;;;;;7.93;7.33;;;19.10;99.90;;;;;;6286802;28;20678;-67
2022/06/17 03:05:23;;;;;;;8.57;7.77;;;19.10;99.90;;;;;;6284928;28;20312;-68
2022/06/17 03:08:29;;;;;;;8.60;7.90;;;19.10;99.90;;;;;;6288824;28;20235;-68
2022/06/17 03:11:32;;;;;;;8.80;8.00;;;19.20;99.90;;;;;;6274477;28;20235;-67
2022/06/17 03:14:42;;;;;;;9.03;8.23;;;19.30;99.90;;;;;;6286856;28;20568;-68
2022/06/17 03:17:46;;;;;;;8.70;8.00;;;19.30;99.90;;;;;;6285757;28;20742;-68
2022/06/17 03:20:50;;;;;;;8.20;7.57;;;19.30;99.90;;;;;;6288847;28;20238;-68
2022/06/17 03:24:00;;;;;;;8.20;7.50;;;19.30;99.90;;;;;;6286379;28;20679;-68
2022/06/17 03:27:08;;;;;;;7.73;7.13;;;19.30;99.90;;;;;;6295669;28;20223;-69
2022/06/17 03:30:15;;;;;;;7.57;6.87;;;19.30;99.90;;;;;;6287126;28;20242;-68
2022/06/17 03:33:21;;;;;;;8.53;6.93;;;19.30;99.90;;;;;;6297265;28;20238;-69
2022/06/17 03:36:28;;;;;;;8.03;7.27;;;19.30;99.90;;;;;;6285028;28;20234;-68
2022/06/17 03:39:37;;;;;;;7.00;6.40;;;19.30;99.90;;;;;;6299162;28;20227;-68
2022/06/17 03:42:51;;;;;;;7.43;6.60;;;19.30;99.90;;;;;;6282565;28;20293;-68
2022/06/17 03:46:00;;;;;;;7.10;6.50;;;19.30;99.90;;;;;;6278998;28;20228;-68
2022/06/17 03:49:08;;;;;;;8.63;6.50;;;19.30;99.90;;;;;;6303321;28;20231;-68
2022/06/17 03:52:19;;;;;;;7.13;6.53;;;19.40;99.90;;;;;;6303123;28;20644;-67
2022/06/17 03:55:23;;;;;;;6.27;5.87;;;19.40;99.90;;;;;;6303456;28;20199;-68
2022/06/17 03:58:27;;;;;;;7.40;6.83;;;19.40;99.90;;;;;;6303654;28;20218;-69
2022/06/17 04:01:36;;;;;;;7.60;7.00;;;19.30;99.90;;;;;;6303347;28;20231;-68
2022/06/17 04:04:43;;;;;;;7.30;6.80;;;19.30;99.90;;;;;;6299107;28;20227;-68
2022/06/17 04:07:46;;;;;;;6.77;6.10;;;19.40;99.90;;;;;;6303117;28;20235;-68
2022/06/17 04:10:50;;;;;;;8.17;7.37;;;19.40;99.90;;;;;;6303268;28;20666;-69
2022/06/17 04:13:55;;;;;;;8.77;8.00;;;19.50;99.90;;;;;;6303414;28;20571;-68
2022/06/17 04:17:05;;;;;;;7.80;7.10;;;19.60;99.90;;;;;;6303331;28;20234;-68
2022/06/17 04:20:34;;;;;;;8.03;7.50;;;19.70;99.90;;;;;;6303016;28;20231;-69
2022/06/17 04:23:37;;;;;;;7.87;7.23;;;19.90;99.90;;;;;;6303313;28;20244;-68
2022/06/17 04:26:43;;;;;;;8.73;7.80;;;19.90;99.90;;;;;;6303145;28;20234;-68
2022/06/17 04:29:49;;;;;;;9.30;8.40;;;20.00;99.90;;;;;;6302819;28;20244;-68
2022/06/17 04:32:57;;;;;;;7.70;7.10;;;20.10;99.90;;;;;;6302351;28;20231;-69
2022/06/17 04:36:04;;;;;;;8.83;7.97;;;20.30;99.90;;;;;;6301699;28;20223;-69
2022/06/17 04:39:21;;;;;;;7.60;7.10;;;20.40;99.90;;;;;;6302637;28;20565;-69
2022/06/17 04:42:33;;;;;;;7.70;7.10;;;20.40;99.90;;;;;;6302347;28;20227;-68
2022/06/17 04:45:36;;;;;;;7.80;7.20;;;20.50;99.90;;;;;;6302487;28;20714;-68
2022/06/17 04:48:42;;;;;;;7.53;6.90;;;20.60;99.90;;;;;;6302204;28;20748;-68
2022/06/17 04:51:45;;;;;;;6.83;6.20;;;20.70;99.90;;;;;;6302233;28;20242;-67
2022/06/17 04:54:49;;;;;;;7.30;6.70;;;20.80;99.90;;;;;;6302216;28;20233;-67
2022/06/17 04:57:52;;;;;;;8.27;7.57;;;20.80;99.90;;;;;;6302113;28;20239;-68
2022/06/17 05:00:58;;;;;;;8.50;7.60;;;20.90;99.90;;;;;;6302438;28;20229;-68
2022/06/17 05:04:04;;;;;;;9.10;8.37;;;21.10;99.90;;;;;;6301960;28;20227;-64
2022/06/17 05:07:07;;;;;;;8.80;7.60;;;21.20;99.90;;;;;;6301806;28;20310;-65
2022/06/17 05:10:17;;;;;;;8.33;7.60;;;21.30;99.90;;;;;;6267562;28;20239;-65
2022/06/17 05:13:27;;;;;;;8.80;8.10;;;21.20;99.90;;;;;;6278475;28;20224;-65
2022/06/17 05:16:30;;;;;;;9.80;8.30;;;21.20;99.90;;;;;;6302120;28;20223;-64
2022/06/17 05:19:35;;;;;;;7.67;7.07;;;21.20;99.90;;;;;;6302130;28;20231;-64
2022/06/17 05:22:42;;;;;;;9.50;8.60;;;21.10;99.90;;;;;;6302135;28;20235;-64
2022/06/17 05:25:48;;;;;;;7.57;6.97;;;21.20;99.90;;;;;;6301285;28;20679;-65
2022/06/17 05:28:51;;;;;;;8.67;7.97;;;21.20;99.90;;;;;;6301569;28;20233;-64
2022/06/17 05:31:54;;;;;;;10.03;9.23;;;21.30;99.90;;;;;;6300882;28;20223;-65
2022/06/17 05:34:59;;;;;;;8.10;7.40;;;21.30;99.90;;;;;;6301083;28;20227;-65
2022/06/17 05:38:02;;;;;;;9.63;7.43;;;21.40;99.90;;;;;;6300993;28;20230;-65
2022/06/17 05:41:06;;;;;;;7.97;7.37;;;21.50;99.90;;;;;;6301002;28;20230;-64
2022/06/17 05:44:09;;;;;;;9.70;8.87;;;21.60;99.90;;;;;;6300851;28;20240;-64
2022/06/17 05:47:13;;;;;;;9.20;8.30;;;21.70;99.90;;;;;;6300824;28;20265;-64
2022/06/17 05:50:18;;;;;;;9.30;8.60;;;21.80;99.90;;;;;;6300789;28;20563;-65
2022/06/17 05:53:23;;;;;;;8.47;7.80;;;21.90;99.90;;;;;;6300684;28;20710;-65
2022/06/17 05:56:26;;;;;;;9.60;8.67;;;22.00;99.90;;;;;;6300715;28;20234;-65
2022/06/17 05:59:29;;;;;;;9.57;8.77;;;22.10;99.90;;;;;;6300601;28;20257;-65
2022/06/17 06:02:33;;;;;;;8.67;7.30;;;22.30;99.90;;;;;;6300466;28;20237;-65
2022/06/17 06:05:37;;;;;;;8.00;7.40;;;22.50;99.90;;;;;;6300495;28;20698;-64
2022/06/17 06:08:41;;;;;;;8.00;7.40;;;22.70;99.90;;;;;;6300054;28;20690;-65
2022/06/17 06:11:44;;;;;;;8.20;7.37;;;22.80;99.80;;;;;;6299982;28;20246;-66
2022/06/17 06:14:47;;;;;;;7.70;7.10;;;22.80;99.80;;;;;;6300565;28;20231;-66
2022/06/17 06:17:50;;;;;;;7.87;7.27;;;22.90;99.50;;;;;;6300362;28;20352;-65
2022/06/17 06:20:55;;;;;;;7.70;7.20;;;23.00;98.90;;;;;;6299801;28;20222;-65
2022/06/17 06:23:58;;;;;;;8.67;8.07;;;23.10;98.80;;;;;;6300202;28;20235;-65
2022/06/17 06:27:01;;;;;;;8.03;7.40;;;23.10;98.90;;;;;;6300293;28;20231;-65
2022/06/17 06:30:05;;;;;;;8.60;7.07;;;23.20;98.60;;;;;;6299931;28;20227;-65
2022/06/17 06:33:11;;;;;;;8.80;8.10;;;23.30;98.60;;;;;;6299559;28;20239;-65
2022/06/17 06:36:15;;;;;;;8.80;8.10;;;23.50;98.20;;;;;;6299946;28;20234;-65
2022/06/17 06:39:18;;;;;;;8.60;7.90;;;23.80;97.60;;;;;;6299974;28;20230;-66
2022/06/17 06:42:21;;;;;;;8.13;7.50;;;24.10;97.10;;;;;;6299509;28;20679;-67
2022/06/17 06:45:27;;;;;;;9.20;7.87;;;24.30;96.30;;;;;;6300312;28;20364;-68
2022/06/17 06:48:30;;;;;;;8.10;7.40;;;24.20;95.90;;;;;;6299810;28;20694;-67
2022/06/17 06:51:34;;;;;;;9.03;8.30;;;24.20;96.60;;;;;;6299297;28;20693;-66
2022/06/17 06:54:37;;;;;;;9.27;8.23;;;24.20;96.40;;;;;;6299441;28;20238;-67
2022/06/17 06:57:45;;;;;;;10.40;9.50;;;24.20;96.10;;;;;;6299060;28;20233;-67
2022/06/17 07:00:50;;;;;;;8.90;8.30;;;24.00;96.20;;;;;;6299776;28;20227;-67
2022/06/17 07:03:53;;;;;;;8.93;8.23;;;23.90;96.00;;;;;;6299870;28;20272;-67
2022/06/17 07:06:57;;;;;;;9.70;8.83;;;23.80;95.90;;;;;;6301601;28;20250;-67
2022/06/17 07:10:01;;;;;;;8.93;8.27;;;23.70;96.10;;;;;;6301051;28;20691;-67
2022/06/17 07:13:06;;;;;;;8.40;7.90;;;23.80;96.40;;;;;;6300892;28;20239;-68
2022/06/17 07:16:10;;;;;;;8.23;7.67;;;23.90;96.30;;;;;;6301519;28;20241;-68
2022/06/17 07:19:16;;;;;;;8.70;8.07;;;24.10;96.30;;;;;;6304061;28;20226;-67
2022/06/17 07:22:22;;;;;;;9.23;8.43;;;24.20;96.00;;;;;;6302892;28;20223;-67
2022/06/17 07:25:25;;;;;;;9.00;8.10;;;24.10;95.90;;;;;;6300129;28;20523;-67
2022/06/17 07:28:28;;;;;;;8.40;7.80;;;24.00;95.80;;;;;;6299825;28;20206;-67
2022/06/17 07:31:32;;;;;;;9.43;8.70;;;24.00;95.80;;;;;;6299737;28;20227;-67
2022/06/17 07:34:35;;;;;;;8.20;7.60;;;24.10;95.70;;;;;;6299073;28;20230;-67
2022/06/17 07:41:00;;;;;;;9.53;8.03;;;24.10;95.10;;;;;;6299025;28;20226;-67
2022/06/17 07:44:03;;;;;;;8.23;7.63;;;24.10;94.70;;;;;;6299364;28;20230;-67
2022/06/17 07:47:07;;;;;;;7.93;7.23;;;24.50;94.70;;;;;;6299468;28;20237;-68
2022/06/17 07:50:14;;;;;;;8.90;8.20;;;25.10;93.40;;;;;;6299157;28;20219;-67
2022/06/17 07:53:19;;;;;;;7.77;7.27;;;25.10;92.10;;;;;;6298716;28;20574;-68
2022/06/17 07:56:22;;;;;;;9.30;8.40;;;25.10;92.20;;;;;;6298998;28;20229;-68
2022/06/17 07:59:25;;;;;;;9.03;8.30;;;25.00;92.10;;;;;;6299084;28;20238;-68
2022/06/17 08:02:28;;;;;;;8.40;7.70;;;25.10;93.10;;;;;;6299068;28;20602;-68
2022/06/17 08:05:32;;;;;;;9.60;8.80;;;25.10;92.90;;;;;;6298877;28;20227;-67
2022/06/17 08:08:37;;;;;;;9.27;8.57;;;25.30;92.70;;;;;;6299171;28;20245;-67
2022/06/17 08:11:41;;;;;;;8.50;7.80;;;25.40;92.70;;;;;;6300913;28;20585;-66
2022/06/17 08:14:46;;;;;;;8.47;7.80;;;25.90;92.80;;;;;;6303182;28;20709;-69
2022/06/17 08:17:49;;;;;;;8.67;7.87;;;26.40;91.90;;;;;;6302918;28;20248;-68
2022/06/17 08:20:52;;;;;;;9.43;8.57;;;26.60;90.80;;;;;;6277995;28;20226;-68
2022/06/17 08:23:57;;;;;;;9.90;9.10;;;26.60;90.60;;;;;;6286346;28;20704;-69
2022/06/17 08:27:01;;;;;;;8.83;8.13;;;26.60;90.50;;;;;;6302909;28;20292;-68
2022/06/17 08:30:05;;;;;;;9.43;8.73;;;26.80;90.40;;;;;;6287833;28;20227;-68
2022/06/17 08:33:08;;;;;;;7.60;7.13;;;27.10;90.40;;;;;;6272669;28;20697;-68
2022/06/17 08:36:32;;;;;;;8.87;8.27;;;27.20;88.10;;;;;;6277517;28;20219;-68
2022/06/17 08:39:36;;;;;;;8.07;7.57;;;27.40;86.40;;;;;;6277383;28;20577;-68
2022/06/17 08:42:58;;;;;;;7.80;7.10;;;27.40;79.50;;;;;;6277633;28;20235;-68
2022/06/17 08:46:12;;;;;;;6.67;6.27;;;27.60;79.70;;;;;;6277620;28;20227;-68
2022/06/17 08:49:34;;;;;;;8.00;7.37;;;27.90;76.60;;;;;;6253723;28;20226;-68
2022/06/17 08:53:07;;;;;;;7.80;7.10;;;28.10;72.70;;;;;;6277796;28;20227;-67
2022/06/17 08:56:22;;;;;;;7.03;6.30;;;28.20;70.80;;;;;;6289219;28;20233;-67
2022/06/17 08:59:51;;;;;;;7.77;6.97;;;28.20;72.20;;;;;;6291823;28;20233;-67
2022/06/17 09:03:23;;;;;;;7.80;7.20;;;28.30;70.80;;;;;;6276741;28;20548;-66
2022/06/17 09:06:41;;;;;;;7.83;7.17;;;28.50;68.50;;;;;;6295391;28;20230;-67
2022/06/17 09:09:58;;;;;;;7.90;7.20;;;28.60;67.10;;;;;;6301434;28;20236;-67
2022/06/17 09:13:15;;;;;;;7.77;7.17;;;28.80;67.50;;;;;;6300942;28;20234;-67
2022/06/17 09:16:27;;;;;;;7.70;7.10;;;29.00;67.70;;;;;;6301138;28;20218;-67
2022/06/17 09:19:32;;;;;;;8.53;7.93;;;28.90;69.00;;;;;;6301854;28;20223;-66
2022/06/17 09:22:40;;;;;;;8.47;7.67;;;28.70;69.20;;;;;;6300341;28;20226;-67
2022/06/17 09:25:46;;;;;;;9.20;8.40;;;28.40;70.10;;;;;;6300897;28;20222;-67
2022/06/17 09:28:55;;;;;;;8.27;7.53;;;28.20;70.10;;;;;;6299167;28;20518;-67
2022/06/17 09:32:04;;;;;;;7.43;6.93;;;27.90;70.30;;;;;;6300834;28;20223;-66
2022/06/17 09:35:14;;;;;;;8.13;7.53;;;27.60;70.90;;;;;;6301286;28;20226;-67
2022/06/17 09:38:24;;;;;;;8.70;7.80;;;27.50;71.70;;;;;;6300943;28;20230;-67
2022/06/17 09:41:33;;;;;;;6.97;6.47;;;27.40;70.50;;;;;;6300463;28;20238;-67
2022/06/17 09:44:43;;;;;;;7.40;6.80;;;27.60;68.90;;;;;;6300934;28;20570;-67
2022/06/17 09:47:51;;;;;;;8.00;7.33;;;27.80;66.80;;;;;;6300725;28;20227;-67
2022/06/17 09:50:57;;;;;;;7.20;6.70;;;27.90;65.80;;;;;;6300819;28;20226;-66
2022/06/17 09:54:06;;;;;;;7.93;7.20;;;27.70;64.70;;;;;;6299898;28;20234;-67
2022/06/17 09:57:14;;;;;;;7.20;6.70;;;27.70;63.70;;;;;;6297175;28;20671;-66
2022/06/17 10:00:21;;;;;;;7.20;6.70;;;27.70;63.40;;;;;;6299993;28;20545;-67
2022/06/17 10:03:26;;;;;;;7.33;6.73;;;27.90;63.70;;;;;;6298719;28;20310;-66
2022/06/17 10:06:40;;;;;;;7.30;6.80;;;28.00;62.70;;;;;;6300201;28;20241;-66
2022/06/17 10:09:52;;;;;;;7.67;7.17;;;28.00;62.20;;;;;;6300368;28;20227;-66
2022/06/17 10:13:09;;;;;;;7.00;6.50;;;28.00;62.10;;;;;;6299717;28;20229;-66
2022/06/17 10:20:01;;;;;;;7.73;7.07;;;28.20;63.60;;;;;;6300019;28;20226;-67
2022/06/17 10:23:16;;;;;;;7.10;6.60;;;28.30;59.80;;;;;;6299563;28;20576;-67
2022/06/17 10:26:29;;;;;;;7.60;6.93;;;28.30;60.00;;;;;;6290753;28;20384;-66
2022/06/17 10:29:50;;;;;;;7.77;7.17;;;28.40;59.90;;;;;;6292520;28;20234;-67
2022/06/17 10:32:56;;;;;;;6.43;6.03;;;28.40;59.00;;;;;;6273932;28;20231;-67
2022/06/17 10:35:59;;;;;;;6.93;6.43;;;28.60;59.70;;;;;;6289609;28;20222;-67
2022/06/17 10:39:03;;;;;;;7.17;6.67;;;28.80;59.60;;;;;;6299636;28;20226;-67
2022/06/17 10:42:11;;;;;;;6.50;6.10;;;28.90;59.60;;;;;;6282924;28;20257;-67
2022/06/17 10:45:16;;;;;;;6.20;5.80;;;29.10;58.30;;;;;;6274649;28;20258;-67
2022/06/17 10:48:30;;;;;;;6.97;6.27;;;29.00;55.40;;;;;;6291908;28;20257;-66
2022/06/17 10:51:35;;;;;;;5.43;5.07;;;28.80;55.10;;;;;;6279751;28;20231;-67
2022/06/17 10:54:39;;;;;;;6.70;6.20;;;28.60;55.90;;;;;;6274055;28;20540;-67
2022/06/17 10:58:10;;;;;;;5.70;5.20;;;28.90;55.80;;;;;;6294852;28;20605;-66
2022/06/17 11:01:15;;;;;;;5.67;5.27;;;29.00;54.00;;;;;;6298712;28;20226;-66
2022/06/17 11:04:24;;;;;;;5.27;4.97;;;28.90;52.90;;;;;;6279440;28;20361;-66
2022/06/17 11:07:30;;;;;;;5.70;5.30;;;28.90;52.00;;;;;;6274192;28;20198;-66
2022/06/17 11:10:33;;;;;;;5.30;4.90;;;28.90;51.90;;;;;;6274321;28;20245;-66
2022/06/17 11:13:36;;;;;;;6.27;5.77;;;28.90;51.00;;;;;;6273963;28;20231;-66
2022/06/17 11:16:43;;;;;;;6.07;5.40;;;28.90;51.30;;;;;;6273872;28;20245;-67
2022/06/17 11:19:51;;;;;;;5.93;5.53;;;29.00;52.00;;;;;;6274181;28;20235;-66
2022/06/17 11:22:56;;;;;;;5.47;5.07;;;29.00;51.60;;;;;;6274276;28;20237;-66
2022/06/17 11:26:16;;;;;;;5.00;4.70;;;29.10;51.80;;;;;;6274073;28;20237;-66
2022/06/17 11:29:22;;;;;;;5.43;4.93;;;29.30;51.70;;;;;;6265192;28;20250;-66
2022/06/17 11:32:32;;;;;;;5.90;5.20;;;29.30;50.50;;;;;;6273875;28;20584;-66
2022/06/17 11:35:40;;;;;;;5.33;4.93;;;29.30;51.40;;;;;;6285135;28;20245;-66
2022/06/17 11:38:44;;;;;;;5.63;5.23;;;29.30;51.70;;;;;;6298548;28;20242;-67
2022/06/17 11:41:57;;;;;;;6.20;5.37;;;29.40;51.10;;;;;;6285185;28;20306;-66
2022/06/17 11:45:02;;;;;;;5.97;5.07;;;29.40;50.60;;;;;;6276808;28;20231;-66
2022/06/17 11:48:13;;;;;;;5.50;5.10;;;29.30;50.60;;;;;;6294933;28;20233;-66
2022/06/17 11:51:25;;;;;;;5.03;4.63;;;29.30;50.10;;;;;;6286422;28;20231;-66
2022/06/17 11:54:32;;;;;;;6.10;4.97;;;29.30;50.10;;;;;;6278075;28;20238;-66
2022/06/17 11:57:38;;;;;;;4.63;4.33;;;29.40;49.80;;;;;;6294114;28;20768;-66
2022/06/17 12:00:46;;;;;;;5.33;4.90;;;29.40;49.00;;;;;;6302883;28;20222;-66
2022/06/17 12:03:49;;;;;;;5.13;4.73;;;29.50;48.90;;;;;;6303253;28;20218;-66
2022/06/17 12:06:58;;;;;;;5.40;4.90;;;29.50;49.40;;;;;;6303869;28;20248;-66
2022/06/17 12:10:13;;;;;;;4.27;4.07;;;29.50;48.70;;;;;;6303560;28;20226;-67
2022/06/17 12:13:27;;;;;;;4.70;4.37;;;29.60;48.70;;;;;;6303815;28;20245;-66
2022/06/17 12:16:39;;;;;;;5.00;4.63;;;29.70;49.10;;;;;;6303257;28;20221;-66
2022/06/17 12:19:42;;;;;;;5.30;4.87;;;30.00;47.60;;;;;;6303352;28;20223;-66
2022/06/17 12:22:53;;;;;;;4.37;3.97;;;30.10;47.10;;;;;;6302700;28;20371;-66
2022/06/17 12:26:00;;;;;;;5.77;4.07;;;30.00;46.50;;;;;;6303145;28;20219;-65
2022/06/17 12:29:10;;;;;;;4.87;4.57;;;29.90;47.40;;;;;;6302586;28;20227;-65
2022/06/17 12:32:17;;;;;;;4.97;4.57;;;29.80;47.10;;;;;;6248209;28;20255;-65
2022/06/17 12:35:30;;;;;;;5.17;4.53;;;29.90;46.80;;;;;;6253103;28;20251;-67
2022/06/17 12:38:46;;;;;;;5.13;4.73;;;29.70;46.00;;;;;;6263623;28;20310;-66
2022/06/17 12:41:56;;;;;;;5.00;4.60;;;29.80;46.30;;;;;;6277469;28;20246;-66
2022/06/17 12:45:09;;;;;;;3.70;3.50;;;29.90;45.70;;;;;;6277835;28;20249;-66
2022/06/17 12:48:25;;;;;;;6.97;3.70;;;29.80;46.10;;;;;;6277428;28;20230;-66
2022/06/17 12:55:17;;;;;;;4.03;3.80;;;29.70;45.10;;;;;;6242926;28;20235;-65
2022/06/17 12:58:33;;;;;;;3.67;3.47;;;29.70;45.10;;;;;;6276439;28;20234;-65
2022/06/17 13:01:43;;;;;;;4.40;4.10;;;29.60;43.80;;;;;;6276979;28;20747;-65
2022/06/17 13:05:15;;;;;;;4.63;4.27;;;29.60;44.00;;;;;;6281363;28;20313;-65
2022/06/17 13:08:29;;;;;;;4.57;4.17;;;29.70;43.20;;;;;;6301612;28;20229;-65
2022/06/17 13:11:42;;;;;;;4.40;4.00;;;29.80;43.60;;;;;;6301559;28;20234;-66
2022/06/17 13:14:53;;;;;;;6.13;5.63;;;30.00;43.00;;;;;;6301453;28;20227;-66
2022/06/17 13:18:03;;;;;;;6.73;6.33;;;29.90;51.30;;;;;;6301757;28;20229;-66
2022/06/17 13:21:11;;;;;;;7.77;7.20;;;29.00;56.70;;;;;;6301609;28;20233;-67
2022/06/17 13:24:23;;;;;;;7.57;7.10;;;28.70;57.80;;;;;;6301637;28;20314;-71
2022/06/17 13:27:35;;;;;;;6.97;6.47;;;28.60;58.20;;;;;;6302298;28;20702;-65
2022/06/17 13:30:43;;;;;;;7.10;6.70;;;28.80;57.30;;;;;;6300896;28;20218;-65
2022/06/17 13:33:54;;;;;;;7.33;6.63;;;29.00;57.80;;;;;;6300736;28;20238;-66
2022/06/17 13:37:02;;;;;;;9.60;7.00;;;29.10;56.70;;;;;;6296692;28;20231;-68
2022/06/17 13:40:11;;;;;;;7.07;6.57;;;29.00;57.00;;;;;;6301107;28;20245;-67
2022/06/17 13:43:20;;;;;;;7.90;7.30;;;28.90;58.50;;;;;;6300953;28;20561;-67
2022/06/17 13:46:32;;;;;;;7.43;6.93;;;29.00;58.90;;;;;;6300413;28;20199;-66
2022/06/17 13:49:48;;;;;;;7.50;6.90;;;29.00;57.90;;;;;;6300397;28;20223;-66
2022/06/17 13:52:59;;;;;;;8.00;7.30;;;28.80;59.60;;;;;;6295010;28;20235;-66
2022/06/17 13:56:08;;;;;;;8.33;7.53;;;28.60;60.30;;;;;;6275305;28;20231;-66
2022/06/17 13:59:30;;;;;;;8.03;7.40;;;28.20;62.00;;;;;;6275671;28;20227;-67
2022/06/17 14:02:52;;;;;;;8.13;7.53;;;28.10;62.80;;;;;;6277354;28;20245;-67
2022/06/17 14:06:09;;;;;;;7.10;6.60;;;28.00;63.80;;;;;;6300549;28;20360;-66
2022/06/17 14:09:26;;;;;;;8.50;7.77;;;28.30;62.60;;;;;;6300254;28;20593;-66
2022/06/17 14:12:45;;;;;;;8.93;8.30;;;28.30;62.80;;;;;;6300007;28;20230;-66
2022/06/17 14:15:55;;;;;;;7.50;6.80;;;28.50;60.20;;;;;;6300040;28;20701;-66
2022/06/17 14:19:02;;;;;;;7.20;6.50;;;28.50;60.20;;;;;;6278635;28;20261;-70
2022/06/17 14:22:06;;;;;;;7.77;7.07;;;28.60;59.30;;;;;;6275387;28;20246;-67
2022/06/17 14:25:27;;;;;;;8.07;7.47;;;28.60;58.90;;;;;;6275528;28;20218;-66
2022/06/17 14:28:39;;;;;;;7.27;6.67;;;28.40;59.30;;;;;;6275704;28;20204;-66
2022/06/17 14:31:45;;;;;;;7.33;6.83;;;28.40;59.20;;;;;;6279807;28;20219;-66
2022/06/17 14:35:03;;;;;;;6.77;6.30;;;28.50;58.60;;;;;;6280960;28;20312;-66
2022/06/17 14:38:17;;;;;;;5.80;5.30;;;28.40;59.30;;;;;;6265430;28;20702;-66
2022/06/17 14:45:46;;;;;;;7.60;7.00;;;28.40;58.90;;;;;;6274809;28;20310;-66
2022/06/17 14:48:53;;;;;;;7.80;7.20;;;28.40;60.10;;;;;;6289529;28;20316;-65
2022/06/17 14:52:02;;;;;;;8.40;7.60;;;28.40;60.10;;;;;;6299519;28;20230;-65
2022/06/17 14:55:18;;;;;;;8.47;7.77;;;28.30;61.00;;;;;;6275681;28;20254;-66
2022/06/17 14:58:23;;;;;;;8.60;7.73;;;28.20;62.10;;;;;;6276068;28;20215;-66
2022/06/17 15:01:33;;;;;;;7.43;6.83;;;28.00;61.70;;;;;;6300339;28;20229;-66
2022/06/17 15:04:41;;;;;;;7.63;7.03;;;27.80;62.20;;;;;;6299407;28;20287;-66
2022/06/17 15:07:50;;;;;;;8.03;7.43;;;27.70;62.40;;;;;;6299607;28;20301;-66
2022/06/17 15:11:07;;;;;;;7.83;7.30;;;27.80;62.80;;;;;;6299434;28;20226;-66
2022/06/17 15:14:16;;;;;;;7.70;7.20;;;27.40;63.90;;;;;;6299990;28;20258;-67
2022/06/17 15:17:29;;;;;;;8.97;8.27;;;27.40;64.70;;;;;;6300064;28;20299;-66
2022/06/17 15:20:36;;;;;;;8.67;8.03;;;27.20;65.80;;;;;;6302481;28;20227;-66
2022/06/17 15:23:51;;;;;;;8.13;7.57;;;27.20;66.20;;;;;;6305071;28;20233;-66
2022/06/17 15:27:01;;;;;;;8.57;7.97;;;27.30;65.80;;;;;;6304595;28;20234;-66
2022/06/17 15:30:20;;;;;;;8.20;7.50;;;27.30;65.40;;;;;;6304117;28;20223;-66
2022/06/17 15:33:26;;;;;;;9.07;7.37;;;27.40;65.10;;;;;;6303797;28;20249;-66
2022/06/17 15:36:55;;;;;;;8.50;7.90;;;27.50;64.00;;;;;;6304110;28;20226;-66
2022/06/17 15:40:18;;;;;;;13.03;7.90;;;27.30;65.10;;;;;;6303408;28;20222;-66
2022/06/17 15:43:22;;;;;;;7.57;7.10;;;27.60;65.30;;;;;;6278841;28;20234;-66
2022/06/17 15:46:29;;;;;;;7.73;7.23;;;27.60;65.60;;;;;;6280537;28;20210;-65
2022/06/17 15:49:36;;;;;;;7.57;6.97;;;27.40;65.20;;;;;;6303098;28;20187;-66
2022/06/17 15:52:41;;;;;;;8.87;8.07;;;27.50;65.10;;;;;;6303167;28;20226;-67
2022/06/17 15:55:46;;;;;;;8.30;7.70;;;27.50;65.10;;;;;;6303572;28;20223;-66
2022/06/17 15:59:05;;;;;;;7.50;6.90;;;27.50;65.10;;;;;;6297513;28;20229;-66
2022/06/17 16:02:19;;;;;;;8.50;7.70;;;27.60;65.30;;;;;;6278628;28;20737;-66
2022/06/17 16:05:25;;;;;;;8.73;8.03;;;27.50;65.50;;;;;;6287976;28;20227;-67
2022/06/17 16:08:34;;;;;;;8.27;7.60;;;27.50;66.80;;;;;;6303935;28;20239;-67
2022/06/17 16:11:39;;;;;;;8.63;8.03;;;27.30;67.80;;;;;;6303024;28;20241;-67
2022/06/17 16:14:43;;;;;;;8.67;8.17;;;27.30;68.40;;;;;;6306575;28;20210;-68
2022/06/17 16:17:48;;;;;;;8.70;8.20;;;27.50;68.40;;;;;;6320316;28;20234;-68
2022/06/17 16:20:51;;;;;;;8.97;8.27;;;27.60;68.10;;;;;;6303418;28;20237;-67
2022/06/17 16:24:15;;;;;;;8.67;7.97;;;27.60;69.40;;;;;;6301557;28;20230;-67
2022/06/17 16:27:30;;;;;;;9.27;7.97;;;27.80;68.50;;;;;;6301333;28;20309;-66
2022/06/17 16:30:42;;;;;;;8.97;8.17;;;27.90;67.70;;;;;;6302002;28;20231;-67
2022/06/17 16:33:52;;;;;;;8.67;8.10;;;27.90;67.70;;;;;;6302245;28;20257;-67
2022/06/17 16:36:56;;;;;;;9.27;8.57;;;27.50;67.60;;;;;;6302897;28;20235;-67